sensor_id;sensor_type;location;lat;lon;timestamp;temperature;humidity
10459;DHT22;5277;48.722;8.736;2023-12-20T00:02:10;5.80;99.90
10459;DHT22;5277;48.722;8.736;2023-12-20T00:04:35;5.70;99.90
10459;DHT22;5277;48.722;8.736;2023-12-20T00:07:01;5.80;99.90
10459;DHT22;5277;48.722;8.736;2023-12-20T00:09:27;5.80;99.90
10459;DHT22;5277;48.722;8.736;2023-12-20T00:11:52;5.80;99.90
10459;DHT22;5277;48.722;8.736;2023-12-20T00:14:18;5.90;99.90
10459;DHT22;5277;48.722;8.736;2023-12-20T00:16:43;5.80;99.90
10459;DHT22;5277;48.722;8.736;2023-12-20T00:19:09;5.90;99.90
10459;DHT22;5277;48.722;8.736;2023-12-20T00:21:34;6.00;99.90
10459;DHT22;5277;48.722;8.736;2023-12-20T00:24:00;6.00;99.90
10459;DHT22;5277;48.722;8.736;2023-12-20T00:26:25;6.00;99.90
10459;DHT22;5277;48.722;8.736;2023-12-20T00:28:53;6.00;99.90
10459;DHT22;5277;48.722;8.736;2023-12-20T00:31:19;6.00;99.90
10459;DHT22;5277;48.722;8.736;2023-12-20T00:33:44;6.10;99.90
10459;DHT22;5277;48.722;8.736;2023-12-20T00:36:11;6.10;99.90
10459;DHT22;5277;48.722;8.736;2023-12-20T00:38:37;6.10;99.90
10459;DHT22;5277;48.722;8.736;2023-12-20T00:41:02;6.10;99.90
10459;DHT22;5277;48.722;8.736;2023-12-20T00:43:28;6.10;99.90
10459;DHT22;5277;48.722;8.736;2023-12-20T00:45:53;6.10;99.90
10459;DHT22;5277;48.722;8.736;2023-12-20T00:48:20;6.10;99.90
10459;DHT22;5277;48.722;8.736;2023-12-20T00:50:46;6.10;99.90
10459;DHT22;5277;48.722;8.736;2023-12-20T00:53:12;6.10;99.90
10459;DHT22;5277;48.722;8.736;2023-12-20T00:55:37;6.20;99.90
10459;DHT22;5277;48.722;8.736;2023-12-20T00:58:03;6.20;99.90
10459;DHT22;5277;48.722;8.736;2023-12-20T01:00:28;6.20;99.90
10459;DHT22;5277;48.722;8.736;2023-12-20T01:02:54;6.30;99.90
10459;DHT22;5277;48.722;8.736;2023-12-20T01:05:20;6.30;99.90
10459;DHT22;5277;48.722;8.736;2023-12-20T01:07:48;6.30;99.90
10459;DHT22;5277;48.722;8.736;2023-12-20T01:10:14;6.30;99.90
10459;DHT22;5277;48.722;8.736;2023-12-20T01:12:40;6.40;99.90
10459;DHT22;5277;48.722;8.736;2023-12-20T01:15:06;6.40;99.90
10459;DHT22;5277;48.722;8.736;2023-12-20T01:17:31;6.40;99.90
10459;DHT22;5277;48.722;8.736;2023-12-20T01:19:57;6.40;99.90
10459;DHT22;5277;48.722;8.736;2023-12-20T01:22:23;6.40;99.90
10459;DHT22;5277;48.722;8.736;2023-12-20T01:24:49;6.50;99.90
10459;DHT22;5277;48.722;8.736;2023-12-20T01:27:14;6.50;99.90
10459;DHT22;5277;48.722;8.736;2023-12-20T01:29:40;6.50;99.90
10459;DHT22;5277;48.722;8.736;2023-12-20T01:32:06;6.60;99.90
10459;DHT22;5277;48.722;8.736;2023-12-20T01:34:32;6.60;99.90
10459;DHT22;5277;48.722;8.736;2023-12-20T01:36:57;6.70;99.90
10459;DHT22;5277;48.722;8.736;2023-12-20T01:39:23;6.60;99.90
10459;DHT22;5277;48.722;8.736;2023-12-20T01:41:48;6.60;99.90
10459;DHT22;5277;48.722;8.736;2023-12-20T01:44:14;6.70;99.90
10459;DHT22;5277;48.722;8.736;2023-12-20T01:46:40;6.70;99.90
10459;DHT22;5277;48.722;8.736;2023-12-20T01:49:06;6.70;99.90
10459;DHT22;5277;48.722;8.736;2023-12-20T01:51:33;6.80;99.90
10459;DHT22;5277;48.722;8.736;2023-12-20T01:53:59;6.80;99.90
10459;DHT22;5277;48.722;8.736;2023-12-20T01:56:29;6.90;99.90
10459;DHT22;5277;48.722;8.736;2023-12-20T01:58:56;6.80;99.90
10459;DHT22;5277;48.722;8.736;2023-12-20T02:01:22;6.90;99.90
10459;DHT22;5277;48.722;8.736;2023-12-20T02:03:48;6.90;99.90
10459;DHT22;5277;48.722;8.736;2023-12-20T02:06:13;6.80;99.90
10459;DHT22;5277;48.722;8.736;2023-12-20T02:08:40;6.90;99.90
10459;DHT22;5277;48.722;8.736;2023-12-20T02:11:05;6.90;99.90
10459;DHT22;5277;48.722;8.736;2023-12-20T02:13:31;6.90;99.90
10459;DHT22;5277;48.722;8.736;2023-12-20T02:15:57;6.90;99.90
10459;DHT22;5277;48.722;8.736;2023-12-20T02:18:23;6.90;99.90
10459;DHT22;5277;48.722;8.736;2023-12-20T02:20:49;6.90;99.90
10459;DHT22;5277;48.722;8.736;2023-12-20T02:23:14;6.90;99.90
10459;DHT22;5277;48.722;8.736;2023-12-20T02:25:40;6.90;99.90
10459;DHT22;5277;48.722;8.736;2023-12-20T02:28:06;6.90;99.90
10459;DHT22;5277;48.722;8.736;2023-12-20T02:30:32;6.90;99.90
10459;DHT22;5277;48.722;8.736;2023-12-20T02:32:59;6.90;99.90
10459;DHT22;5277;48.722;8.736;2023-12-20T02:35:26;7.00;99.90
10459;DHT22;5277;48.722;8.736;2023-12-20T02:37:51;7.00;99.90
10459;DHT22;5277;48.722;8.736;2023-12-20T02:40:17;6.90;99.90
10459;DHT22;5277;48.722;8.736;2023-12-20T02:42:43;6.90;99.90
10459;DHT22;5277;48.722;8.736;2023-12-20T02:45:08;6.90;99.90
10459;DHT22;5277;48.722;8.736;2023-12-20T02:47:34;6.90;99.90
10459;DHT22;5277;48.722;8.736;2023-12-20T02:50:00;7.00;99.90
10459;DHT22;5277;48.722;8.736;2023-12-20T02:52:28;6.90;99.90
10459;DHT22;5277;48.722;8.736;2023-12-20T02:54:54;6.90;99.90
10459;DHT22;5277;48.722;8.736;2023-12-20T02:57:19;6.90;99.90
10459;DHT22;5277;48.722;8.736;2023-12-20T02:59:45;6.90;99.90
10459;DHT22;5277;48.722;8.736;2023-12-20T03:02:10;6.90;99.90
10459;DHT22;5277;48.722;8.736;2023-12-20T03:04:36;6.80;99.90
10459;DHT22;5277;48.722;8.736;2023-12-20T03:07:02;6.90;99.90
10459;DHT22;5277;48.722;8.736;2023-12-20T03:09:27;6.90;99.90
10459;DHT22;5277;48.722;8.736;2023-12-20T03:11:53;6.80;99.90
10459;DHT22;5277;48.722;8.736;2023-12-20T03:14:18;6.90;99.90
10459;DHT22;5277;48.722;8.736;2023-12-20T03:16:50;6.90;99.90
10459;DHT22;5277;48.722;8.736;2023-12-20T03:19:17;6.90;99.90
10459;DHT22;5277;48.722;8.736;2023-12-20T03:21:43;6.90;99.90
10459;DHT22;5277;48.722;8.736;2023-12-20T03:24:08;6.90;99.90
10459;DHT22;5277;48.722;8.736;2023-12-20T03:26:34;6.90;99.90
10459;DHT22;5277;48.722;8.736;2023-12-20T03:28:59;6.80;99.90
10459;DHT22;5277;48.722;8.736;2023-12-20T03:31:25;6.80;99.90
10459;DHT22;5277;48.722;8.736;2023-12-20T03:33:51;6.70;99.90
10459;DHT22;5277;48.722;8.736;2023-12-20T03:36:19;6.80;99.90
10459;DHT22;5277;48.722;8.736;2023-12-20T03:38:44;6.70;99.90
10459;DHT22;5277;48.722;8.736;2023-12-20T03:41:10;6.70;99.90
10459;DHT22;5277;48.722;8.736;2023-12-20T03:43:36;6.70;99.90
10459;DHT22;5277;48.722;8.736;2023-12-20T03:46:03;6.70;99.90
10459;DHT22;5277;48.722;8.736;2023-12-20T03:48:30;6.80;99.90
10459;DHT22;5277;48.722;8.736;2023-12-20T03:50:57;6.80;99.90
10459;DHT22;5277;48.722;8.736;2023-12-20T03:53:22;6.70;99.90
10459;DHT22;5277;48.722;8.736;2023-12-20T03:55:48;6.80;99.90
10459;DHT22;5277;48.722;8.736;2023-12-20T03:58:13;6.80;99.90
10459;DHT22;5277;48.722;8.736;2023-12-20T04:00:39;6.80;99.90
10459;DHT22;5277;48.722;8.736;2023-12-20T04:03:05;6.80;99.90
10459;DHT22;5277;48.722;8.736;2023-12-20T04:05:30;6.80;99.90
10459;DHT22;5277;48.722;8.736;2023-12-20T04:07:56;6.80;99.90
10459;DHT22;5277;48.722;8.736;2023-12-20T04:10:21;6.80;99.90
10459;DHT22;5277;48.722;8.736;2023-12-20T04:12:47;6.70;99.90
10459;DHT22;5277;48.722;8.736;2023-12-20T04:15:12;6.80;99.90
10459;DHT22;5277;48.722;8.736;2023-12-20T04:17:38;6.80;99.90
10459;DHT22;5277;48.722;8.736;2023-12-20T04:20:05;6.70;99.90
10459;DHT22;5277;48.722;8.736;2023-12-20T04:22:30;6.70;99.90
10459;DHT22;5277;48.722;8.736;2023-12-20T04:24:56;6.60;99.90
10459;DHT22;5277;48.722;8.736;2023-12-20T04:27:21;6.60;99.90
10459;DHT22;5277;48.722;8.736;2023-12-20T04:29:47;6.60;99.90
10459;DHT22;5277;48.722;8.736;2023-12-20T04:32:13;6.60;99.90
10459;DHT22;5277;48.722;8.736;2023-12-20T04:34:38;6.70;99.90
10459;DHT22;5277;48.722;8.736;2023-12-20T04:37:04;6.70;99.90
10459;DHT22;5277;48.722;8.736;2023-12-20T04:39:30;6.60;99.90
10459;DHT22;5277;48.722;8.736;2023-12-20T04:41:55;6.60;99.90
10459;DHT22;5277;48.722;8.736;2023-12-20T04:44:21;6.60;99.90
10459;DHT22;5277;48.722;8.736;2023-12-20T04:46:46;6.60;99.90
10459;DHT22;5277;48.722;8.736;2023-12-20T04:49:12;6.60;99.90
10459;DHT22;5277;48.722;8.736;2023-12-20T04:51:38;6.60;99.90
10459;DHT22;5277;48.722;8.736;2023-12-20T04:54:03;6.60;99.90
10459;DHT22;5277;48.722;8.736;2023-12-20T04:56:29;6.60;99.90
10459;DHT22;5277;48.722;8.736;2023-12-20T04:58:54;6.60;99.90
10459;DHT22;5277;48.722;8.736;2023-12-20T05:01:20;6.60;99.90
10459;DHT22;5277;48.722;8.736;2023-12-20T05:03:46;6.60;99.90
10459;DHT22;5277;48.722;8.736;2023-12-20T05:06:12;6.60;99.90
10459;DHT22;5277;48.722;8.736;2023-12-20T05:08:38;6.60;99.90
10459;DHT22;5277;48.722;8.736;2023-12-20T05:11:03;6.70;99.90
10459;DHT22;5277;48.722;8.736;2023-12-20T05:13:29;6.70;99.90
10459;DHT22;5277;48.722;8.736;2023-12-20T05:15:55;6.70;99.90
10459;DHT22;5277;48.722;8.736;2023-12-20T05:18:21;6.70;99.90
10459;DHT22;5277;48.722;8.736;2023-12-20T05:20:47;6.70;99.90
10459;DHT22;5277;48.722;8.736;2023-12-20T05:23:13;6.60;99.90
10459;DHT22;5277;48.722;8.736;2023-12-20T05:25:38;6.70;99.90
10459;DHT22;5277;48.722;8.736;2023-12-20T05:28:04;6.60;99.90
10459;DHT22;5277;48.722;8.736;2023-12-20T05:30:30;6.60;99.90
10459;DHT22;5277;48.722;8.736;2023-12-20T05:32:55;6.70;99.90
10459;DHT22;5277;48.722;8.736;2023-12-20T05:35:21;6.60;99.90
10459;DHT22;5277;48.722;8.736;2023-12-20T05:37:49;6.70;99.90
10459;DHT22;5277;48.722;8.736;2023-12-20T05:40:14;6.70;99.90
10459;DHT22;5277;48.722;8.736;2023-12-20T05:42:40;6.70;99.90
10459;DHT22;5277;48.722;8.736;2023-12-20T05:45:06;6.60;99.90
10459;DHT22;5277;48.722;8.736;2023-12-20T05:47:31;6.70;99.90
10459;DHT22;5277;48.722;8.736;2023-12-20T05:49:57;6.70;99.90
10459;DHT22;5277;48.722;8.736;2023-12-20T05:52:23;6.70;99.90
10459;DHT22;5277;48.722;8.736;2023-12-20T05:54:49;6.70;99.90
10459;DHT22;5277;48.722;8.736;2023-12-20T05:57:14;6.70;99.90
10459;DHT22;5277;48.722;8.736;2023-12-20T05:59:40;6.70;99.90
10459;DHT22;5277;48.722;8.736;2023-12-20T06:02:06;6.70;99.90
10459;DHT22;5277;48.722;8.736;2023-12-20T06:04:31;6.70;99.90
10459;DHT22;5277;48.722;8.736;2023-12-20T06:06:57;6.70;99.90
10459;DHT22;5277;48.722;8.736;2023-12-20T06:09:23;6.70;99.90
10459;DHT22;5277;48.722;8.736;2023-12-20T06:11:49;6.70;99.90
10459;DHT22;5277;48.722;8.736;2023-12-20T06:14:14;6.70;99.90
10459;DHT22;5277;48.722;8.736;2023-12-20T06:16:40;6.70;99.90
10459;DHT22;5277;48.722;8.736;2023-12-20T06:19:06;6.70;99.90
10459;DHT22;5277;48.722;8.736;2023-12-20T06:21:31;6.70;99.90
10459;DHT22;5277;48.722;8.736;2023-12-20T06:23:59;6.70;99.90
10459;DHT22;5277;48.722;8.736;2023-12-20T06:26:24;6.70;99.90
10459;DHT22;5277;48.722;8.736;2023-12-20T06:28:50;6.70;99.90
10459;DHT22;5277;48.722;8.736;2023-12-20T06:31:15;6.70;99.90
10459;DHT22;5277;48.722;8.736;2023-12-20T06:33:42;6.80;99.90
10459;DHT22;5277;48.722;8.736;2023-12-20T06:36:11;6.70;99.90
10459;DHT22;5277;48.722;8.736;2023-12-20T06:38:37;6.70;99.90
10459;DHT22;5277;48.722;8.736;2023-12-20T06:41:03;6.80;99.90
10459;DHT22;5277;48.722;8.736;2023-12-20T06:43:28;6.80;99.90
10459;DHT22;5277;48.722;8.736;2023-12-20T06:45:54;6.80;99.90
10459;DHT22;5277;48.722;8.736;2023-12-20T06:48:20;6.70;99.90
10459;DHT22;5277;48.722;8.736;2023-12-20T06:50:46;6.80;99.90
10459;DHT22;5277;48.722;8.736;2023-12-20T06:53:11;6.70;99.90
10459;DHT22;5277;48.722;8.736;2023-12-20T06:55:37;6.70;99.90
10459;DHT22;5277;48.722;8.736;2023-12-20T06:58:03;6.80;99.90
10459;DHT22;5277;48.722;8.736;2023-12-20T07:00:30;6.80;99.90
10459;DHT22;5277;48.722;8.736;2023-12-20T07:02:55;6.80;99.90
10459;DHT22;5277;48.722;8.736;2023-12-20T07:05:21;6.80;99.90
10459;DHT22;5277;48.722;8.736;2023-12-20T07:07:46;6.80;99.90
10459;DHT22;5277;48.722;8.736;2023-12-20T07:10:13;6.80;99.90
10459;DHT22;5277;48.722;8.736;2023-12-20T07:12:38;6.80;99.90
10459;DHT22;5277;48.722;8.736;2023-12-20T07:15:04;6.80;99.90
10459;DHT22;5277;48.722;8.736;2023-12-20T07:17:31;6.80;99.90
10459;DHT22;5277;48.722;8.736;2023-12-20T07:19:58;6.80;99.90
10459;DHT22;5277;48.722;8.736;2023-12-20T07:22:24;6.80;99.90
10459;DHT22;5277;48.722;8.736;2023-12-20T07:24:49;6.80;99.90
10459;DHT22;5277;48.722;8.736;2023-12-20T07:27:17;6.80;99.90
10459;DHT22;5277;48.722;8.736;2023-12-20T07:29:43;6.80;99.90
10459;DHT22;5277;48.722;8.736;2023-12-20T07:32:14;6.80;99.90
10459;DHT22;5277;48.722;8.736;2023-12-20T07:34:42;6.80;99.90
10459;DHT22;5277;48.722;8.736;2023-12-20T07:37:08;6.90;99.90
10459;DHT22;5277;48.722;8.736;2023-12-20T07:39:36;6.80;99.90
10459;DHT22;5277;48.722;8.736;2023-12-20T07:42:01;6.90;99.90
10459;DHT22;5277;48.722;8.736;2023-12-20T07:44:27;6.90;99.90
10459;DHT22;5277;48.722;8.736;2023-12-20T07:46:52;6.90;99.90
10459;DHT22;5277;48.722;8.736;2023-12-20T07:49:19;6.90;99.90
10459;DHT22;5277;48.722;8.736;2023-12-20T07:51:44;6.90;99.90
10459;DHT22;5277;48.722;8.736;2023-12-20T07:54:10;6.90;99.90
10459;DHT22;5277;48.722;8.736;2023-12-20T07:56:36;6.90;99.90
10459;DHT22;5277;48.722;8.736;2023-12-20T07:59:01;7.00;99.90
10459;DHT22;5277;48.722;8.736;2023-12-20T08:01:27;7.00;99.90
10459;DHT22;5277;48.722;8.736;2023-12-20T08:03:52;7.00;99.90
10459;DHT22;5277;48.722;8.736;2023-12-20T08:06:18;7.00;99.90
10459;DHT22;5277;48.722;8.736;2023-12-20T08:08:43;7.00;99.90
10459;DHT22;5277;48.722;8.736;2023-12-20T08:11:09;7.00;99.90
10459;DHT22;5277;48.722;8.736;2023-12-20T08:13:34;6.90;99.90
10459;DHT22;5277;48.722;8.736;2023-12-20T08:16:00;6.90;99.90
10459;DHT22;5277;48.722;8.736;2023-12-20T08:18:28;6.90;99.90
10459;DHT22;5277;48.722;8.736;2023-12-20T08:20:54;6.90;99.90
10459;DHT22;5277;48.722;8.736;2023-12-20T08:23:19;6.90;99.90
10459;DHT22;5277;48.722;8.736;2023-12-20T08:25:46;6.90;99.90
10459;DHT22;5277;48.722;8.736;2023-12-20T08:28:12;6.80;99.90
10459;DHT22;5277;48.722;8.736;2023-12-20T08:30:38;6.80;99.90
10459;DHT22;5277;48.722;8.736;2023-12-20T08:33:04;6.80;99.90
10459;DHT22;5277;48.722;8.736;2023-12-20T08:35:29;6.70;99.90
10459;DHT22;5277;48.722;8.736;2023-12-20T08:37:55;6.70;99.90
10459;DHT22;5277;48.722;8.736;2023-12-20T08:40:21;6.60;99.90
10459;DHT22;5277;48.722;8.736;2023-12-20T08:42:47;6.50;99.90
10459;DHT22;5277;48.722;8.736;2023-12-20T08:45:12;6.50;99.90
10459;DHT22;5277;48.722;8.736;2023-12-20T08:47:38;6.50;99.90
10459;DHT22;5277;48.722;8.736;2023-12-20T08:50:03;6.40;99.90
10459;DHT22;5277;48.722;8.736;2023-12-20T08:52:29;6.30;99.90
10459;DHT22;5277;48.722;8.736;2023-12-20T08:54:55;6.30;99.90
10459;DHT22;5277;48.722;8.736;2023-12-20T08:57:21;6.30;99.90
10459;DHT22;5277;48.722;8.736;2023-12-20T08:59:48;6.30;99.90
10459;DHT22;5277;48.722;8.736;2023-12-20T09:02:14;6.20;99.90
10459;DHT22;5277;48.722;8.736;2023-12-20T09:04:39;6.20;99.90
10459;DHT22;5277;48.722;8.736;2023-12-20T09:07:05;6.20;99.90
10459;DHT22;5277;48.722;8.736;2023-12-20T09:09:31;6.20;99.90
10459;DHT22;5277;48.722;8.736;2023-12-20T09:11:57;6.20;99.90
10459;DHT22;5277;48.722;8.736;2023-12-20T09:14:23;6.10;99.90
10459;DHT22;5277;48.722;8.736;2023-12-20T09:16:49;6.20;99.90
10459;DHT22;5277;48.722;8.736;2023-12-20T09:19:16;6.20;99.90
10459;DHT22;5277;48.722;8.736;2023-12-20T09:21:42;6.20;99.90
10459;DHT22;5277;48.722;8.736;2023-12-20T09:24:08;6.30;99.90
10459;DHT22;5277;48.722;8.736;2023-12-20T09:26:34;6.30;99.90
10459;DHT22;5277;48.722;8.736;2023-12-20T09:29:00;6.30;99.90
10459;DHT22;5277;48.722;8.736;2023-12-20T09:31:25;6.30;99.90
10459;DHT22;5277;48.722;8.736;2023-12-20T09:33:51;6.30;99.90
10459;DHT22;5277;48.722;8.736;2023-12-20T09:36:16;6.20;99.90
10459;DHT22;5277;48.722;8.736;2023-12-20T09:38:42;6.20;99.90
10459;DHT22;5277;48.722;8.736;2023-12-20T09:41:08;6.30;99.90
10459;DHT22;5277;48.722;8.736;2023-12-20T09:43:37;6.20;99.90
10459;DHT22;5277;48.722;8.736;2023-12-20T09:46:06;6.10;99.90
10459;DHT22;5277;48.722;8.736;2023-12-20T09:48:33;6.10;99.90
10459;DHT22;5277;48.722;8.736;2023-12-20T09:50:59;6.20;99.90
10459;DHT22;5277;48.722;8.736;2023-12-20T09:53:25;6.20;99.90
10459;DHT22;5277;48.722;8.736;2023-12-20T09:55:58;6.20;99.90
10459;DHT22;5277;48.722;8.736;2023-12-20T09:58:24;6.20;99.90
10459;DHT22;5277;48.722;8.736;2023-12-20T10:00:50;6.30;99.90
10459;DHT22;5277;48.722;8.736;2023-12-20T10:03:16;6.40;99.90
10459;DHT22;5277;48.722;8.736;2023-12-20T10:05:44;6.40;99.90
10459;DHT22;5277;48.722;8.736;2023-12-20T10:08:10;6.40;99.90
10459;DHT22;5277;48.722;8.736;2023-12-20T10:10:35;6.40;99.90
10459;DHT22;5277;48.722;8.736;2023-12-20T10:13:09;6.40;99.90
10459;DHT22;5277;48.722;8.736;2023-12-20T10:15:36;6.30;99.90
10459;DHT22;5277;48.722;8.736;2023-12-20T10:18:03;6.40;99.90
10459;DHT22;5277;48.722;8.736;2023-12-20T10:20:29;6.40;99.90
10459;DHT22;5277;48.722;8.736;2023-12-20T10:22:57;6.40;99.90
10459;DHT22;5277;48.722;8.736;2023-12-20T10:25:22;6.40;99.90
10459;DHT22;5277;48.722;8.736;2023-12-20T10:27:50;6.50;99.90
10459;DHT22;5277;48.722;8.736;2023-12-20T10:30:15;6.50;99.90
10459;DHT22;5277;48.722;8.736;2023-12-20T10:32:41;6.50;99.90
10459;DHT22;5277;48.722;8.736;2023-12-20T10:35:08;6.60;99.90
10459;DHT22;5277;48.722;8.736;2023-12-20T10:37:37;6.60;99.90
10459;DHT22;5277;48.722;8.736;2023-12-20T10:40:04;6.70;99.90
10459;DHT22;5277;48.722;8.736;2023-12-20T10:42:31;6.80;99.90
10459;DHT22;5277;48.722;8.736;2023-12-20T10:44:59;6.80;99.90
10459;DHT22;5277;48.722;8.736;2023-12-20T10:47:26;6.70;99.90
10459;DHT22;5277;48.722;8.736;2023-12-20T10:49:54;6.70;99.90
10459;DHT22;5277;48.722;8.736;2023-12-20T10:52:23;6.70;99.90
10459;DHT22;5277;48.722;8.736;2023-12-20T10:54:48;6.70;99.90
10459;DHT22;5277;48.722;8.736;2023-12-20T10:57:18;6.70;99.90
10459;DHT22;5277;48.722;8.736;2023-12-20T10:59:45;6.70;99.90
10459;DHT22;5277;48.722;8.736;2023-12-20T11:02:14;6.70;99.90
10459;DHT22;5277;48.722;8.736;2023-12-20T11:07:38;6.80;99.90
10459;DHT22;5277;48.722;8.736;2023-12-20T11:10:27;6.80;99.90
10459;DHT22;5277;48.722;8.736;2023-12-20T11:12:56;6.90;99.90
10459;DHT22;5277;48.722;8.736;2023-12-20T11:15:25;6.80;99.90
10459;DHT22;5277;48.722;8.736;2023-12-20T11:17:56;6.80;99.90
10459;DHT22;5277;48.722;8.736;2023-12-20T11:20:36;6.80;99.90
10459;DHT22;5277;48.722;8.736;2023-12-20T11:23:02;6.80;99.90
10459;DHT22;5277;48.722;8.736;2023-12-20T11:25:28;6.80;99.90
10459;DHT22;5277;48.722;8.736;2023-12-20T11:28:12;6.80;99.90
10459;DHT22;5277;48.722;8.736;2023-12-20T11:30:42;6.80;99.90
10459;DHT22;5277;48.722;8.736;2023-12-20T11:33:08;6.80;99.90
10459;DHT22;5277;48.722;8.736;2023-12-20T11:35:34;6.80;99.90
10459;DHT22;5277;48.722;8.736;2023-12-20T11:38:02;6.80;99.90
10459;DHT22;5277;48.722;8.736;2023-12-20T11:40:27;6.90;99.90
10459;DHT22;5277;48.722;8.736;2023-12-20T11:42:53;6.90;99.90
10459;DHT22;5277;48.722;8.736;2023-12-20T11:45:21;6.90;99.90
10459;DHT22;5277;48.722;8.736;2023-12-20T11:47:48;6.90;99.90
10459;DHT22;5277;48.722;8.736;2023-12-20T11:50:17;6.80;99.90
10459;DHT22;5277;48.722;8.736;2023-12-20T11:52:42;6.90;99.90
10459;DHT22;5277;48.722;8.736;2023-12-20T11:55:08;7.00;99.90
10459;DHT22;5277;48.722;8.736;2023-12-20T11:57:34;7.00;99.90
10459;DHT22;5277;48.722;8.736;2023-12-20T11:59:59;7.10;99.90
10459;DHT22;5277;48.722;8.736;2023-12-20T12:02:25;7.20;99.90
10459;DHT22;5277;48.722;8.736;2023-12-20T12:04:51;7.30;99.90
10459;DHT22;5277;48.722;8.736;2023-12-20T12:07:17;7.40;99.90
10459;DHT22;5277;48.722;8.736;2023-12-20T12:09:43;7.50;99.90
10459;DHT22;5277;48.722;8.736;2023-12-20T12:12:10;7.60;99.90
10459;DHT22;5277;48.722;8.736;2023-12-20T12:14:37;7.70;99.90
10459;DHT22;5277;48.722;8.736;2023-12-20T12:17:03;7.70;99.90
10459;DHT22;5277;48.722;8.736;2023-12-20T12:19:29;7.80;99.90
10459;DHT22;5277;48.722;8.736;2023-12-20T12:22:07;7.90;99.90
10459;DHT22;5277;48.722;8.736;2023-12-20T12:24:34;7.80;99.90
10459;DHT22;5277;48.722;8.736;2023-12-20T12:27:00;7.80;99.90
10459;DHT22;5277;48.722;8.736;2023-12-20T12:29:25;7.80;98.90
10459;DHT22;5277;48.722;8.736;2023-12-20T12:31:51;7.90;99.50
10459;DHT22;5277;48.722;8.736;2023-12-20T12:34:19;7.90;98.90
10459;DHT22;5277;48.722;8.736;2023-12-20T12:36:45;8.00;99.90
10459;DHT22;5277;48.722;8.736;2023-12-20T12:39:18;8.00;99.90
10459;DHT22;5277;48.722;8.736;2023-12-20T12:41:44;8.00;99.90
10459;DHT22;5277;48.722;8.736;2023-12-20T12:44:09;7.90;99.80
10459;DHT22;5277;48.722;8.736;2023-12-20T12:46:35;7.80;99.90
10459;DHT22;5277;48.722;8.736;2023-12-20T12:49:01;7.70;99.90
10459;DHT22;5277;48.722;8.736;2023-12-20T12:51:26;7.60;99.90
10459;DHT22;5277;48.722;8.736;2023-12-20T12:53:53;7.60;99.90
10459;DHT22;5277;48.722;8.736;2023-12-20T12:56:18;7.50;99.90
10459;DHT22;5277;48.722;8.736;2023-12-20T12:58:44;7.40;99.90
10459;DHT22;5277;48.722;8.736;2023-12-20T13:01:10;7.30;99.90
10459;DHT22;5277;48.722;8.736;2023-12-20T13:03:36;7.30;99.90
10459;DHT22;5277;48.722;8.736;2023-12-20T13:06:01;7.30;99.90
10459;DHT22;5277;48.722;8.736;2023-12-20T13:08:28;7.20;99.90
10459;DHT22;5277;48.722;8.736;2023-12-20T13:10:54;7.10;99.90
10459;DHT22;5277;48.722;8.736;2023-12-20T13:13:20;7.10;99.90
10459;DHT22;5277;48.722;8.736;2023-12-20T13:15:46;7.00;99.90
10459;DHT22;5277;48.722;8.736;2023-12-20T13:18:16;7.00;99.90
10459;DHT22;5277;48.722;8.736;2023-12-20T13:20:43;6.90;99.90
10459;DHT22;5277;48.722;8.736;2023-12-20T13:23:09;6.90;99.90
10459;DHT22;5277;48.722;8.736;2023-12-20T13:25:34;6.90;99.90
10459;DHT22;5277;48.722;8.736;2023-12-20T13:28:00;6.90;99.90
10459;DHT22;5277;48.722;8.736;2023-12-20T13:30:25;6.90;99.90
10459;DHT22;5277;48.722;8.736;2023-12-20T13:32:51;6.90;99.90
10459;DHT22;5277;48.722;8.736;2023-12-20T13:35:16;7.00;99.90
10459;DHT22;5277;48.722;8.736;2023-12-20T13:37:42;7.00;99.90
10459;DHT22;5277;48.722;8.736;2023-12-20T13:40:09;7.10;99.90
10459;DHT22;5277;48.722;8.736;2023-12-20T13:42:35;7.10;99.90
10459;DHT22;5277;48.722;8.736;2023-12-20T13:45:01;7.10;99.90
10459;DHT22;5277;48.722;8.736;2023-12-20T13:47:26;7.20;99.90
10459;DHT22;5277;48.722;8.736;2023-12-20T13:49:52;7.20;99.90
10459;DHT22;5277;48.722;8.736;2023-12-20T13:52:17;7.20;99.90
10459;DHT22;5277;48.722;8.736;2023-12-20T13:54:44;7.20;99.90
10459;DHT22;5277;48.722;8.736;2023-12-20T13:57:09;7.20;99.90
10459;DHT22;5277;48.722;8.736;2023-12-20T13:59:35;7.20;99.90
10459;DHT22;5277;48.722;8.736;2023-12-20T14:02:00;7.10;99.90
10459;DHT22;5277;48.722;8.736;2023-12-20T14:04:28;7.10;99.90
10459;DHT22;5277;48.722;8.736;2023-12-20T14:06:54;7.10;99.90
10459;DHT22;5277;48.722;8.736;2023-12-20T14:09:20;7.10;99.90
10459;DHT22;5277;48.722;8.736;2023-12-20T14:11:46;7.10;99.90
10459;DHT22;5277;48.722;8.736;2023-12-20T14:14:11;7.10;99.90
10459;DHT22;5277;48.722;8.736;2023-12-20T14:16:37;7.10;99.90
10459;DHT22;5277;48.722;8.736;2023-12-20T14:19:03;7.10;99.90
10459;DHT22;5277;48.722;8.736;2023-12-20T14:21:29;7.10;99.90
10459;DHT22;5277;48.722;8.736;2023-12-20T14:23:54;7.10;99.90
10459;DHT22;5277;48.722;8.736;2023-12-20T14:26:20;7.10;99.90
10459;DHT22;5277;48.722;8.736;2023-12-20T14:28:46;7.10;99.90
10459;DHT22;5277;48.722;8.736;2023-12-20T14:31:11;7.10;99.90
10459;DHT22;5277;48.722;8.736;2023-12-20T14:33:37;7.10;99.90
10459;DHT22;5277;48.722;8.736;2023-12-20T14:36:05;7.10;99.90
10459;DHT22;5277;48.722;8.736;2023-12-20T14:38:31;7.00;99.90
10459;DHT22;5277;48.722;8.736;2023-12-20T14:40:57;6.90;99.90
10459;DHT22;5277;48.722;8.736;2023-12-20T14:43:23;6.90;99.90
10459;DHT22;5277;48.722;8.736;2023-12-20T14:45:48;6.80;99.90
10459;DHT22;5277;48.722;8.736;2023-12-20T14:48:14;6.80;99.90
10459;DHT22;5277;48.722;8.736;2023-12-20T14:50:41;6.80;99.90
10459;DHT22;5277;48.722;8.736;2023-12-20T14:53:07;6.70;99.90
10459;DHT22;5277;48.722;8.736;2023-12-20T14:55:33;6.70;99.90
10459;DHT22;5277;48.722;8.736;2023-12-20T14:57:59;6.60;99.90
10459;DHT22;5277;48.722;8.736;2023-12-20T15:00:26;6.70;99.90
10459;DHT22;5277;48.722;8.736;2023-12-20T15:02:52;6.70;99.90
10459;DHT22;5277;48.722;8.736;2023-12-20T15:05:19;6.60;99.90
10459;DHT22;5277;48.722;8.736;2023-12-20T15:07:45;6.60;99.90
10459;DHT22;5277;48.722;8.736;2023-12-20T15:10:13;6.60;99.90
10459;DHT22;5277;48.722;8.736;2023-12-20T15:12:38;6.60;99.90
10459;DHT22;5277;48.722;8.736;2023-12-20T15:15:04;6.60;99.90
10459;DHT22;5277;48.722;8.736;2023-12-20T15:17:30;6.60;99.90
10459;DHT22;5277;48.722;8.736;2023-12-20T15:19:55;6.50;99.90
10459;DHT22;5277;48.722;8.736;2023-12-20T15:22:21;6.50;99.90
10459;DHT22;5277;48.722;8.736;2023-12-20T15:24:46;6.40;99.90
10459;DHT22;5277;48.722;8.736;2023-12-20T15:27:13;6.50;99.90
10459;DHT22;5277;48.722;8.736;2023-12-20T15:29:38;6.40;99.90
10459;DHT22;5277;48.722;8.736;2023-12-20T15:32:04;6.40;99.90
10459;DHT22;5277;48.722;8.736;2023-12-20T15:34:30;6.30;99.90
10459;DHT22;5277;48.722;8.736;2023-12-20T15:36:57;6.30;99.90
10459;DHT22;5277;48.722;8.736;2023-12-20T15:39:22;6.30;99.90
10459;DHT22;5277;48.722;8.736;2023-12-20T15:41:48;6.20;99.90
10459;DHT22;5277;48.722;8.736;2023-12-20T15:44:14;6.20;99.90
10459;DHT22;5277;48.722;8.736;2023-12-20T15:46:41;6.10;99.90
10459;DHT22;5277;48.722;8.736;2023-12-20T15:49:07;6.00;99.90
10459;DHT22;5277;48.722;8.736;2023-12-20T15:51:32;6.00;99.90
10459;DHT22;5277;48.722;8.736;2023-12-20T15:53:58;5.90;99.90
10459;DHT22;5277;48.722;8.736;2023-12-20T15:56:28;5.90;99.90
10459;DHT22;5277;48.722;8.736;2023-12-20T15:58:54;5.80;99.90